Robinson, Illinois
Current Conditions -  °F | °C
As of 1:35 PM on Tuesday 21 Oct 2014 (Local Time) from KRSV Reporting Station
Broken Clouds Broken Clouds  
Wind Chill: 63°   Ceiling: 4500
Heat Index: 63°   Visibility: 10mi
Dew Point: 42°   Wind: 13mph
Humidity: 47%   Direction: 30°NNE
Pressure: 30.12"   Gusts: 16mph
Location:  39.01°N, 87.74°W
Report Text: KRSV 211835Z AUTO 03011G14KT 10SM BKN045 17/06 A3012 RMK AO2 T01700057
Loading
Personal Weather Stations






























Interactive Weather Map
Tropical Storm Tracking
New forecast layout! Learn more

10-Day Weather Forecast

Advertisements
Track Severe Weather on mobile